createdAt,value
2023-12-01T06:02:25.435Z,25.09
2023-12-01T06:02:52.596Z,25.10
2023-12-01T06:03:52.619Z,25.11
2023-12-01T06:04:52.584Z,25.11
2023-12-01T06:05:52.549Z,25.10
2023-12-01T06:08:03.827Z,25.09
2023-12-01T06:09:01.769Z,25.11
2023-12-01T06:10:00.674Z,25.10
2023-12-01T06:11:00.633Z,25.11
2023-12-01T06:12:00.630Z,25.14
2023-12-01T06:13:00.713Z,25.14
2023-12-01T06:14:00.653Z,25.14
2023-12-01T06:15:00.635Z,25.16
2023-12-01T06:16:00.675Z,25.19
2023-12-01T06:17:00.808Z,25.21
2023-12-01T06:18:00.835Z,25.21
2023-12-01T06:19:02.197Z,25.23
2023-12-01T06:20:00.942Z,25.23
2023-12-01T06:21:00.996Z,25.24
2023-12-01T06:22:01.073Z,25.26
2023-12-01T06:23:01.224Z,25.24
2023-12-01T06:24:01.173Z,25.24
2023-12-01T06:25:01.332Z,25.26
2023-12-01T06:26:01.312Z,25.26
2023-12-01T06:27:01.357Z,25.26
2023-12-01T06:28:01.457Z,25.27
2023-12-01T06:29:01.471Z,25.28
2023-12-01T06:30:01.509Z,25.30
2023-12-01T06:31:01.576Z,25.30
2023-12-01T06:32:01.650Z,25.31
2023-12-01T06:33:01.691Z,25.33
2023-12-01T06:34:01.760Z,25.36
2023-12-01T06:35:01.746Z,25.36
2023-12-01T06:36:01.808Z,25.36
2023-12-01T06:37:01.846Z,25.36
2023-12-01T06:38:01.939Z,25.38
2023-12-01T06:39:01.929Z,25.41
2023-12-01T06:40:02.105Z,25.40
2023-12-01T06:41:02.010Z,25.42
2023-12-01T06:42:02.076Z,25.41
2023-12-01T06:43:02.119Z,25.42
2023-12-01T06:44:02.180Z,25.42
2023-12-01T06:45:02.234Z,25.42
2023-12-01T06:46:02.298Z,25.42
2023-12-01T06:47:02.352Z,25.41
2023-12-01T06:48:03.143Z,25.41
2023-12-01T06:49:02.433Z,25.41
2023-12-01T06:50:02.474Z,25.42
2023-12-01T06:51:02.463Z,25.41
2023-12-01T06:52:02.567Z,25.41
2023-12-01T06:53:02.760Z,25.41
2023-12-01T06:54:02.653Z,25.42
2023-12-01T06:55:02.688Z,25.45
2023-12-01T06:56:02.641Z,25.42
2023-12-01T06:57:02.692Z,25.47
2023-12-01T06:58:02.785Z,25.44
2023-12-01T06:59:02.815Z,25.45
2023-12-01T07:00:02.886Z,25.44
2023-12-01T07:01:02.925Z,25.44
2023-12-01T07:02:03.032Z,25.42
2023-12-01T07:03:03.043Z,25.45
2023-12-01T07:04:03.034Z,25.47
2023-12-01T07:05:03.057Z,25.47
2023-12-01T07:06:03.083Z,25.47
2023-12-01T07:07:03.278Z,25.48
2023-12-01T07:08:03.130Z,25.47
2023-12-01T07:09:03.180Z,25.49
2023-12-01T07:10:03.361Z,25.49
2023-12-01T07:11:04.207Z,25.48
2023-12-01T07:12:03.287Z,25.47
2023-12-01T07:13:03.364Z,25.47
2023-12-01T07:14:03.345Z,25.48
2023-12-01T07:15:03.384Z,25.49
2023-12-01T07:16:03.437Z,25.49
2023-12-01T07:17:03.966Z,25.49
2023-12-01T07:18:03.534Z,25.51
2023-12-01T07:19:03.516Z,25.49
2023-12-01T07:20:03.541Z,25.51
2023-12-01T07:21:03.571Z,25.51
2023-12-01T07:22:03.670Z,25.51
2023-12-01T07:23:06.150Z,25.54
2023-12-01T07:24:03.700Z,25.51
2023-12-01T07:25:03.677Z,25.51
2023-12-01T07:26:03.681Z,25.51
2023-12-01T07:27:03.637Z,25.51
2023-12-01T07:28:03.685Z,25.49
2023-12-01T07:29:03.677Z,25.48
2023-12-01T07:30:03.684Z,25.51
2023-12-01T07:31:03.716Z,25.52
2023-12-01T07:32:03.699Z,25.54
2023-12-01T07:33:03.698Z,25.55
2023-12-01T07:34:03.728Z,25.60
2023-12-01T07:35:03.694Z,25.61
2023-12-01T07:36:03.679Z,25.65
2023-12-01T07:37:03.687Z,25.65
2023-12-01T07:38:03.669Z,25.68
2023-12-01T07:39:04.948Z,25.71
2023-12-01T07:40:03.720Z,25.72
2023-12-01T07:41:03.710Z,25.71
2023-12-01T07:42:03.678Z,25.74
2023-12-01T07:43:03.700Z,25.75
2023-12-01T07:44:03.683Z,25.78
2023-12-01T07:45:03.737Z,25.79
2023-12-01T07:46:03.734Z,25.79
2023-12-01T07:47:03.766Z,25.78
2023-12-01T07:48:03.809Z,25.84
2023-12-01T07:49:09.149Z,25.81
2023-12-01T07:50:04.782Z,25.85
2023-12-01T07:51:03.797Z,25.85
2023-12-01T07:52:03.914Z,25.85
2023-12-01T07:53:03.787Z,25.86
2023-12-01T07:54:03.810Z,25.89
2023-12-01T07:55:03.844Z,25.84
2023-12-01T07:56:03.802Z,25.86
2023-12-01T07:57:03.790Z,25.88
2023-12-01T07:58:03.859Z,25.88
2023-12-01T07:59:03.797Z,25.89
2023-12-01T08:00:03.793Z,25.91
2023-12-01T08:01:03.856Z,25.92
2023-12-01T08:02:04.738Z,25.95
2023-12-01T08:03:03.943Z,25.95
2023-12-01T08:04:04.056Z,25.93
2023-12-01T08:05:04.037Z,25.95
2023-12-01T08:06:04.098Z,25.96
2023-12-01T08:07:04.266Z,25.96
2023-12-01T08:08:04.284Z,25.96
2023-12-01T08:09:04.267Z,25.96
2023-12-01T08:10:04.387Z,25.95
2023-12-01T08:11:04.459Z,25.99
2023-12-01T08:12:04.517Z,25.99
2023-12-01T08:13:04.612Z,25.99
2023-12-01T08:14:04.604Z,26.00
2023-12-01T08:15:04.752Z,26.02
2023-12-01T08:16:04.767Z,26.02
2023-12-01T08:17:04.841Z,26.02
2023-12-01T08:18:05.078Z,26.03
2023-12-01T08:19:04.964Z,26.06
2023-12-01T08:20:05.026Z,26.05
2023-12-01T08:21:05.100Z,26.00
2023-12-01T08:22:05.115Z,26.00
2023-12-01T08:23:05.122Z,25.99
2023-12-01T08:24:05.201Z,25.98
2023-12-01T08:25:05.204Z,25.99
2023-12-01T08:26:05.198Z,25.95
2023-12-01T08:27:05.219Z,25.96
2023-12-01T08:28:05.274Z,25.96
2023-12-01T08:29:05.296Z,25.95
2023-12-01T08:30:05.356Z,25.98
2023-12-01T08:31:05.401Z,25.93
2023-12-01T08:32:05.486Z,25.95
2023-12-01T08:33:05.486Z,25.95
2023-12-01T08:34:05.518Z,25.98
2023-12-01T08:35:06.524Z,25.96
2023-12-01T08:36:05.536Z,25.98
2023-12-01T08:37:05.498Z,25.96
2023-12-01T08:38:05.512Z,25.95
2023-12-01T08:39:05.512Z,25.96
2023-12-01T08:40:05.579Z,25.98
2023-12-01T08:41:05.510Z,25.98
2023-12-01T08:42:05.515Z,25.96
2023-12-01T08:43:05.542Z,25.96
2023-12-01T08:44:05.605Z,25.95
2023-12-01T08:45:05.783Z,25.95
2023-12-01T08:46:05.781Z,25.98
2023-12-01T08:47:05.826Z,25.98
2023-12-01T08:48:05.936Z,25.98
2023-12-01T08:49:05.984Z,26.00
2023-12-01T08:50:08.987Z,26.00
2023-12-01T08:51:06.059Z,26.03
2023-12-01T08:52:06.046Z,26.03
2023-12-01T08:53:06.048Z,26.06
2023-12-01T08:54:06.064Z,26.05
2023-12-01T08:55:07.110Z,26.06
2023-12-01T08:56:06.023Z,26.07
2023-12-01T08:57:06.053Z,26.09
2023-12-01T08:58:06.041Z,26.07
2023-12-01T08:59:06.086Z,26.07
2023-12-01T09:00:06.070Z,26.09
2023-12-01T09:01:06.064Z,26.10
2023-12-01T09:02:06.088Z,26.12
2023-12-01T09:03:07.206Z,26.12
2023-12-01T09:04:06.164Z,26.13
2023-12-01T09:05:06.063Z,26.15
2023-12-01T09:06:06.072Z,26.13
2023-12-01T09:07:07.896Z,26.15
2023-12-01T09:08:06.041Z,26.16
2023-12-01T09:09:06.140Z,26.16
2023-12-01T09:10:06.073Z,26.15
2023-12-01T09:11:06.082Z,26.15
2023-12-01T09:12:06.156Z,26.16
2023-12-01T09:13:07.755Z,26.17
2023-12-01T09:14:06.190Z,26.16
2023-12-01T09:15:06.229Z,26.16
2023-12-01T09:16:06.298Z,26.20
2023-12-01T09:17:06.352Z,26.17
2023-12-01T09:18:06.489Z,26.19
2023-12-01T09:19:08.046Z,26.16
2023-12-01T09:20:06.547Z,26.16
2023-12-01T09:21:06.584Z,26.19
2023-12-01T09:22:06.605Z,26.17
2023-12-01T09:23:06.638Z,26.17
2023-12-01T09:24:06.776Z,26.17
2023-12-01T09:25:08.013Z,26.17
2023-12-01T09:26:06.780Z,26.17
2023-12-01T09:27:06.880Z,26.20
2023-12-01T09:28:06.896Z,26.20
2023-12-01T09:29:06.937Z,26.16
2023-12-01T09:30:07.019Z,26.17
2023-12-01T09:31:07.089Z,26.17
2023-12-01T09:32:07.239Z,26.15
2023-12-01T09:33:07.278Z,26.16
2023-12-01T09:34:07.225Z,26.16
2023-12-01T09:35:07.311Z,26.15
2023-12-01T09:36:07.394Z,26.16
2023-12-01T09:37:07.415Z,26.16
2023-12-01T09:38:07.536Z,26.19
2023-12-01T09:39:07.537Z,26.20
2023-12-01T09:40:07.794Z,26.22
2023-12-01T09:41:07.650Z,26.20
2023-12-01T09:42:07.925Z,26.23
2023-12-01T09:43:07.790Z,26.22
2023-12-01T09:44:13.317Z,26.23
2023-12-01T09:45:09.628Z,26.26
2023-12-01T09:46:07.791Z,26.25
2023-12-01T09:47:07.753Z,26.25
2023-12-01T09:48:07.924Z,26.27
2023-12-01T09:49:07.772Z,26.29
